EZY81HQ EGKK-LEPA
Flight info
| Callsign | EZY81HQ |
|---|---|
| Flight time | N/A |
| Altitude | 34000 |
| Route | BOGNA1X BOGNA L612 BENBO Y47 DRAKE L151 SITET UN859 SOPIL DCT BALAN DCT EVPOK DCT NARAK DCT GAI DCT LOMRA DCT ROCAN DCT IBRAP DCT LUKEV N13 LORES LORES1P |
| Aircraft | A20N/M-VGDW/C |
Departure
| Time | 2026-04-18 07:51 |
|---|---|
| Airport | London Gatwick Airport (EGKK) |
Arrival
| Time | N/A |
|---|---|
| Airport | Palma de Mallorca Airport (LEPA) |
| Time | Latitude | Longitude | Altitude | Speed | Heading |
|---|---|---|---|---|---|
| 2026-04-18 07:25 | 51.15974 | -0.17138 | 197 ft | 0 kts | 316° |
| 2026-04-18 07:36 | 51.15974 | -0.17137 | 197 ft | 0 kts | 316° |
| 2026-04-18 07:36 | 51.15966 | -0.17126 | 197 ft | 2 kts | 316° |
| 2026-04-18 07:36 | 51.15955 | -0.17109 | 197 ft | 2 kts | 316° |
| 2026-04-18 07:36 | 51.15945 | -0.17093 | 196 ft | 2 kts | 316° |
| 2026-04-18 07:37 | 51.15935 | -0.17078 | 196 ft | 0 kts | 316° |
| 2026-04-18 07:37 | 51.15928 | -0.17065 | 196 ft | 2 kts | 294° |
| 2026-04-18 07:37 | 51.15924 | -0.17042 | 195 ft | 2 kts | 266° |
| 2026-04-18 07:37 | 51.15928 | -0.17019 | 195 ft | 2 kts | 237° |
| 2026-04-18 07:38 | 51.15933 | -0.17008 | 195 ft | 1 kts | 221° |
| 2026-04-18 07:38 | 51.15938 | -0.17002 | 194 ft | 0 kts | 221° |
| 2026-04-18 07:41 | 51.15934 | -0.17007 | 194 ft | 2 kts | 222° |
| 2026-04-18 07:41 | 51.15910 | -0.17041 | 195 ft | 7 kts | 217° |
| 2026-04-18 07:41 | 51.15858 | -0.17077 | 196 ft | 8 kts | 194° |
| 2026-04-18 07:41 | 51.15813 | -0.17134 | 197 ft | 10 kts | 251° |
| 2026-04-18 07:42 | 51.15793 | -0.17271 | 197 ft | 14 kts | 257° |
| 2026-04-18 07:42 | 51.15770 | -0.17433 | 197 ft | 12 kts | 258° |
| 2026-04-18 07:42 | 51.15709 | -0.17497 | 195 ft | 13 kts | 169° |
| 2026-04-18 07:42 | 51.15610 | -0.17462 | 193 ft | 15 kts | 168° |
| 2026-04-18 07:43 | 51.15517 | -0.17433 | 192 ft | 14 kts | 169° |
| 2026-04-18 07:43 | 51.15431 | -0.17402 | 188 ft | 14 kts | 166° |
| 2026-04-18 07:43 | 51.15324 | -0.17363 | 186 ft | 16 kts | 168° |
| 2026-04-18 07:43 | 51.15219 | -0.17291 | 184 ft | 15 kts | 144° |
| 2026-04-18 07:44 | 51.15185 | -0.17144 | 181 ft | 16 kts | 79° |
| 2026-04-18 07:44 | 51.15210 | -0.16970 | 182 ft | 10 kts | 78° |
| 2026-04-18 07:44 | 51.15216 | -0.16925 | 183 ft | 0 kts | 78° |
| 2026-04-18 07:46 | 51.15218 | -0.16910 | 183 ft | 3 kts | 78° |
| 2026-04-18 07:46 | 51.15223 | -0.16852 | 184 ft | 6 kts | 91° |
| 2026-04-18 07:46 | 51.15193 | -0.16796 | 186 ft | 8 kts | 168° |
| 2026-04-18 07:47 | 51.15133 | -0.16787 | 187 ft | 8 kts | 201° |
| 2026-04-18 07:47 | 51.15117 | -0.16831 | 187 ft | 0 kts | 258° |
| 2026-04-18 07:50 | 51.15114 | -0.16858 | 186 ft | 9 kts | 258° |
| 2026-04-18 07:51 | 51.15041 | -0.17386 | 192 ft | 87 kts | 257° |
| 2026-04-18 07:51 | 51.14862 | -0.18684 | 195 ft | 152 kts | 258° |
| 2026-04-18 07:51 | 51.14629 | -0.20459 | 639 ft | 169 kts | 259° |
| 2026-04-18 07:51 | 51.14383 | -0.22270 | 1447 ft | 169 kts | 260° |
| 2026-04-18 07:52 | 51.14131 | -0.24054 | 2209 ft | 172 kts | 260° |
| 2026-04-18 07:52 | 51.13865 | -0.25956 | 2774 ft | 184 kts | 259° |
| 2026-04-18 07:52 | 51.13578 | -0.27998 | 3308 ft | 197 kts | 260° |
| 2026-04-18 07:52 | 51.13279 | -0.30218 | 3808 ft | 215 kts | 259° |
| 2026-04-18 07:53 | 51.12955 | -0.32570 | 4512 ft | 220 kts | 259° |
| 2026-04-18 07:53 | 51.12623 | -0.34916 | 4953 ft | 220 kts | 258° |
| 2026-04-18 07:53 | 51.12286 | -0.37299 | 5493 ft | 224 kts | 258° |
| 2026-04-18 07:53 | 51.11877 | -0.39639 | 6415 ft | 223 kts | 244° |
| 2026-04-18 07:54 | 51.10831 | -0.41423 | 7280 ft | 229 kts | 212° |
| 2026-04-18 07:54 | 51.09302 | -0.42062 | 8099 ft | 238 kts | 184° |
| 2026-04-18 07:54 | 51.07646 | -0.41837 | 8940 ft | 241 kts | 180° |
| 2026-04-18 07:54 | 51.05962 | -0.41601 | 9519 ft | 253 kts | 180° |
| 2026-04-18 07:55 | 51.04149 | -0.41369 | 9967 ft | 270 kts | 180° |
| 2026-04-18 07:55 | 51.02254 | -0.41128 | 10609 ft | 279 kts | 180° |
| 2026-04-18 07:55 | 51.00310 | -0.40874 | 11404 ft | 282 kts | 181° |
| 2026-04-18 07:55 | 50.98362 | -0.40622 | 12178 ft | 284 kts | 181° |
| 2026-04-18 07:56 | 50.96392 | -0.40371 | 12917 ft | 288 kts | 181° |
| 2026-04-18 07:56 | 50.94399 | -0.40119 | 13656 ft | 291 kts | 181° |
| 2026-04-18 07:56 | 50.92390 | -0.39865 | 14378 ft | 294 kts | 181° |
| 2026-04-18 07:56 | 50.90348 | -0.39608 | 15091 ft | 297 kts | 181° |
| 2026-04-18 07:57 | 50.88305 | -0.39351 | 15792 ft | 300 kts | 181° |